Time;durP1;ratioP1;P1;durP2;ratioP2;P2;SDS_P1;SDS_P2;PMS_P1;PMS_P2;Temp;Humidity;BMP_temperature;BMP_pressure;BME280_temperature;BME280_humidity;BME280_pressure;Samples;Min_cycle;Max_cycle;Signal;HPM_P1;HPM_P2
2023/03/21 00:00:39;;;;;;;;;5.00;5.00;;;;;;;;6336217;22;47351;-82
2023/03/21 00:03:05;;;;;;;;;9.50;7.00;;;;;;;;6336546;22;45331;-83
2023/03/21 00:05:30;;;;;;;;;11.25;7.75;;;;;;;;6336810;22;45261;-83
2023/03/21 00:07:55;;;;;;;;;10.33;4.33;;;;;;;;6335949;22;45138;-83
2023/03/21 00:10:20;;;;;;;;;7.33;7.00;;;;;;;;6336434;22;45546;-83
2023/03/21 00:12:49;;;;;;;;;8.00;8.00;;;;;;;;6336842;22;45209;-83
2023/03/21 00:15:17;;;;;;;;;9.25;6.00;;;;;;;;6336317;22;45107;-83
2023/03/21 00:17:43;;;;;;;;;7.50;4.75;;;;;;;;6336280;22;45438;-82
2023/03/21 00:20:10;;;;;;;;;5.50;5.00;;;;;;;;6336185;22;46565;-83
2023/03/21 00:22:35;;;;;;;;;7.00;7.00;;;;;;;;6335805;22;45173;-83
2023/03/21 00:25:01;;;;;;;;;6.33;4.00;;;;;;;;6336682;22;45115;-83
2023/03/21 00:27:26;;;;;;;;;8.75;5.50;;;;;;;;6335704;22;45384;-82
2023/03/21 00:29:51;;;;;;;;;9.75;6.50;;;;;;;;6335886;22;46232;-83
2023/03/21 00:32:17;;;;;;;;;5.00;4.00;;;;;;;;6334460;22;45231;-83
2023/03/21 00:34:43;;;;;;;;;8.00;5.00;;;;;;;;6335968;22;45282;-83
2023/03/21 00:37:10;;;;;;;;;7.75;5.50;;;;;;;;6334215;22;45474;-83
2023/03/21 00:39:36;;;;;;;;;7.75;5.50;;;;;;;;6335893;22;47115;-83
2023/03/21 00:42:01;;;;;;;;;5.00;4.25;;;;;;;;6336512;22;45295;-84
2023/03/21 00:44:26;;;;;;;;;9.00;4.67;;;;;;;;6336692;22;45346;-83
2023/03/21 00:46:51;;;;;;;;;10.00;6.50;;;;;;;;6334567;22;45210;-83
2023/03/21 00:49:19;;;;;;;;;3.00;3.00;;;;;;;;6335903;22;45326;-83
2023/03/21 00:51:44;;;;;;;;;8.00;5.00;;;;;;;;6335451;22;45823;-83
2023/03/21 00:54:10;;;;;;;;;8.00;5.00;;;;;;;;6336368;22;45355;-83
2023/03/21 00:56:35;;;;;;;;;7.50;4.25;;;;;;;;6334452;22;45242;-83
2023/03/21 00:59:01;;;;;;;;;5.33;4.67;;;;;;;;6336190;22;46525;-83
2023/03/21 01:01:30;;;;;;;;;5.00;5.00;;;;;;;;6336248;22;45235;-83
2023/03/21 01:04:01;;;;;;;;;4.75;3.50;;;;;;;;6336187;22;45281;-83
2023/03/21 01:06:26;;;;;;;;;4.75;4.75;;;;;;;;6335697;22;45352;-83
2023/03/21 01:08:52;;;;;;;;;7.33;3.67;;;;;;;;6336119;22;46339;-83
2023/03/21 01:11:18;;;;;;;;;9.00;4.00;;;;;;;;6335837;22;45222;-83
2023/03/21 01:13:44;;;;;;;;;4.00;4.00;;;;;;;;6336360;22;45181;-83
2023/03/21 01:16:09;;;;;;;;;7.00;4.00;;;;;;;;6335448;22;45420;-83
2023/03/21 01:18:35;;;;;;;;;6.00;3.50;;;;;;;;6333960;22;46303;-83
2023/03/21 01:21:04;;;;;;;;;2.75;1.75;;;;;;;;6335384;22;45336;-83
2023/03/21 01:23:29;;;;;;;;;4.50;4.50;;;;;;;;6335865;22;45510;-83
2023/03/21 01:25:55;;;;;;;;;3.00;3.00;;;;;;;;6334107;22;45502;-83
2023/03/21 01:28:20;;;;;;;;;4.00;4.00;;;;;;;;6335344;22;46478;-83
2023/03/21 01:30:46;;;;;;;;;6.00;2.67;;;;;;;;6336084;22;45207;-83
2023/03/21 01:33:12;;;;;;;;;6.00;3.00;;;;;;;;6335737;22;45141;-83
2023/03/21 01:35:37;;;;;;;;;4.50;4.00;;;;;;;;6333607;22;45552;-83
2023/03/21 01:38:02;;;;;;;;;6.00;4.00;;;;;;;;6335302;22;46235;-83
2023/03/21 01:40:29;;;;;;;;;7.33;3.00;;;;;;;;6336650;22;45354;-83
2023/03/21 01:42:54;;;;;;;;;7.75;3.00;;;;;;;;6337526;22;45332;-83
2023/03/21 01:45:39;;;;;;;;;7.00;3.75;;;;;;;;6335449;22;45292;-83
2023/03/21 01:48:04;;;;;;;;;5.25;3.00;;;;;;;;6336655;22;46928;-83
2023/03/21 01:50:30;;;;;;;;;6.25;2.00;;;;;;;;6336403;22;45344;-83
2023/03/21 01:52:55;;;;;;;;;5.00;3.75;;;;;;;;6336871;22;45242;-82
2023/03/21 01:55:20;;;;;;;;;4.75;3.00;;;;;;;;6337452;22;45421;-83
2023/03/21 01:57:54;;;;;;;;;8.00;3.00;;;;;;;;6337224;22;45398;-83
2023/03/21 02:00:22;;;;;;;;;5.50;2.25;;;;;;;;6336791;22;45572;-83
2023/03/21 02:02:53;;;;;;;;;3.00;3.00;;;;;;;;6337036;22;45536;-83
2023/03/21 02:05:23;;;;;;;;;3.00;2.00;;;;;;;;6336545;22;45411;-83
2023/03/21 02:07:51;;;;;;;;;5.00;2.00;;;;;;;;6335101;22;47333;-83
2023/03/21 02:10:17;;;;;;;;;3.75;2.25;;;;;;;;6336814;22;45260;-83
2023/03/21 02:12:42;;;;;;;;;3.00;3.00;;;;;;;;6336986;22;45275;-83
2023/03/21 02:15:08;;;;;;;;;2.33;2.00;;;;;;;;6337400;22;45145;-83
2023/03/21 02:17:46;;;;;;;;;5.00;2.75;;;;;;;;6333654;22;46845;-82
2023/03/21 02:20:30;;;;;;;;;2.25;2.25;;;;;;;;6337088;22;45700;-82
2023/03/21 02:23:07;;;;;;;;;2.25;2.25;;;;;;;;6336822;22;45372;-83
2023/03/21 02:25:51;;;;;;;;;7.25;3.00;;;;;;;;6336783;22;45428;-83
2023/03/21 02:28:34;;;;;;;;;3.50;2.00;;;;;;;;6336442;22;46295;-83
2023/03/21 02:31:05;;;;;;;;;9.00;3.00;;;;;;;;6337029;22;45635;-82
2023/03/21 02:33:46;;;;;;;;;2.00;0.75;;;;;;;;6336294;22;45227;-83
2023/03/21 02:36:35;;;;;;;;;4.50;2.50;;;;;;;;6336624;22;45451;-83
2023/03/21 02:39:12;;;;;;;;;2.00;2.00;;;;;;;;6336695;22;47151;-82
2023/03/21 02:41:49;;;;;;;;;3.75;2.75;;;;;;;;6334763;22;45555;-82
2023/03/21 02:44:20;;;;;;;;;2.75;2.75;;;;;;;;6335216;22;45355;-83
2023/03/21 02:46:50;;;;;;;;;2.00;2.00;;;;;;;;6336213;22;45309;-83
2023/03/21 02:49:20;;;;;;;;;3.50;2.75;;;;;;;;6335089;22;47135;-83
2023/03/21 02:51:47;;;;;;;;;2.25;2.25;;;;;;;;6336653;22;45222;-82
2023/03/21 02:54:15;;;;;;;;;1.50;1.50;;;;;;;;6336570;22;45256;-82
2023/03/21 02:56:41;;;;;;;;;5.75;3.50;;;;;;;;6336490;22;45392;-84
2023/03/21 02:59:07;;;;;;;;;4.00;3.25;;;;;;;;6336370;22;46952;-84
2023/03/21 03:01:33;;;;;;;;;3.50;1.25;;;;;;;;6336352;22;45720;-83
2023/03/21 03:03:58;;;;;;;;;6.00;2.00;;;;;;;;6335368;22;45261;-84
2023/03/21 03:06:32;;;;;;;;;3.33;2.00;;;;;;;;6335098;22;45316;-83
2023/03/21 03:09:00;;;;;;;;;3.00;2.25;;;;;;;;6334705;22;47102;-84
2023/03/21 03:11:36;;;;;;;;;1.25;1.25;;;;;;;;6336997;22;45398;-83
2023/03/21 03:14:11;;;;;;;;;2.50;2.50;;;;;;;;6336481;22;45320;-83
2023/03/21 03:16:55;;;;;;;;;4.50;1.00;;;;;;;;6336129;22;45673;-84
2023/03/21 03:19:24;;;;;;;;;4.50;1.00;;;;;;;;6336364;22;47475;-83
2023/03/21 03:21:58;;;;;;;;;1.00;1.00;;;;;;;;6336520;22;45269;-83
2023/03/21 03:24:27;;;;;;;;;3.00;2.50;;;;;;;;6337154;22;45273;-82
2023/03/21 03:26:54;;;;;;;;;1.00;1.00;;;;;;;;6336585;22;45279;-83
2023/03/21 03:29:20;;;;;;;;;1.00;1.00;;;;;;;;6334567;22;47748;-83
2023/03/21 03:31:53;;;;;;;;;2.25;2.25;;;;;;;;6336076;22;45236;-83
2023/03/21 03:34:21;;;;;;;;;2.00;1.00;;;;;;;;6334874;22;45293;-83
2023/03/21 03:36:50;;;;;;;;;3.50;2.00;;;;;;;;6337114;22;45203;-83
2023/03/21 03:39:16;;;;;;;;;1.25;1.25;;;;;;;;6336504;22;45315;-83
2023/03/21 03:41:50;;;;;;;;;1.00;1.00;;;;;;;;6334956;22;45710;-84
2023/03/21 03:44:15;;;;;;;;;2.75;2.00;;;;;;;;6336602;22;45296;-83
2023/03/21 03:46:46;;;;;;;;;6.00;2.00;;;;;;;;6336454;22;45210;-83
2023/03/21 03:49:17;;;;;;;;;1.00;1.00;;;;;;;;6334544;22;48358;-84
2023/03/21 03:51:57;;;;;;;;;7.25;2.00;;;;;;;;6336446;22;45770;-83
2023/03/21 03:54:49;;;;;;;;;2.25;2.00;;;;;;;;6336583;22;45150;-83
2023/03/21 03:57:15;;;;;;;;;2.00;1.00;;;;;;;;6327875;22;45469;-83
2023/03/21 03:59:41;;;;;;;;;2.50;1.00;;;;;;;;6335807;22;46085;-83
2023/03/21 04:02:07;;;;;;;;;2.00;2.00;;;;;;;;6334424;22;46607;-83
2023/03/21 04:04:32;;;;;;;;;2.00;2.00;;;;;;;;6336694;22;45219;-83
2023/03/21 04:06:58;;;;;;;;;1.00;1.00;;;;;;;;6336816;22;45197;-83
2023/03/21 04:09:24;;;;;;;;;3.00;1.75;;;;;;;;6336231;22;47073;-83
2023/03/21 04:11:49;;;;;;;;;2.25;2.25;;;;;;;;6336341;22;45618;-83
2023/03/21 04:14:15;;;;;;;;;2.50;2.00;;;;;;;;6335731;22;45418;-83
2023/03/21 04:16:40;;;;;;;;;2.75;2.00;;;;;;;;6334859;22;45558;-83
2023/03/21 04:19:05;;;;;;;;;1.75;1.75;;;;;;;;6334285;22;48634;-83
2023/03/21 04:21:31;;;;;;;;;3.67;1.33;;;;;;;;6334657;22;45880;-83
2023/03/21 04:23:56;;;;;;;;;2.25;1.00;;;;;;;;6336314;22;45333;-83
2023/03/21 04:26:22;;;;;;;;;2.25;1.25;;;;;;;;6336559;22;45443;-83
2023/03/21 04:28:48;;;;;;;;;1.25;1.25;;;;;;;;6335992;22;45878;-83
2023/03/21 04:31:16;;;;;;;;;6.00;2.75;;;;;;;;6336785;22;45472;-83
2023/03/21 04:33:41;;;;;;;;;1.00;1.00;;;;;;;;6334724;22;45305;-83
2023/03/21 04:36:08;;;;;;;;;7.33;2.00;;;;;;;;6336593;22;45391;-83
2023/03/21 04:38:33;;;;;;;;;3.50;3.00;;;;;;;;6335714;22;46315;-83
2023/03/21 04:40:59;;;;;;;;;2.00;2.00;;;;;;;;6336007;22;45272;-83
2023/03/21 04:43:24;;;;;;;;;3.75;1.00;;;;;;;;6335858;22;45296;-83
2023/03/21 04:45:50;;;;;;;;;2.00;1.00;;;;;;;;6336189;22;45510;-83
2023/03/21 04:48:18;;;;;;;;;1.25;1.00;;;;;;;;6335936;22;47276;-83
2023/03/21 04:50:43;;;;;;;;;1.00;1.00;;;;;;;;6336153;22;45485;-83
2023/03/21 04:53:09;;;;;;;;;1.75;1.75;;;;;;;;6336465;22;45273;-83
2023/03/21 04:55:35;;;;;;;;;3.50;1.00;;;;;;;;6335954;22;45253;-83
2023/03/21 04:58:00;;;;;;;;;3.00;1.25;;;;;;;;6335336;22;45557;-83
2023/03/21 05:00:26;;;;;;;;;1.67;1.33;;;;;;;;6336252;22;45422;-83
2023/03/21 05:02:51;;;;;;;;;1.67;1.00;;;;;;;;6336464;22;45228;-83
2023/03/21 05:05:16;;;;;;;;;3.00;2.00;;;;;;;;6335923;22;45204;-83
2023/03/21 05:07:41;;;;;;;;;1.00;1.00;;;;;;;;6335860;22;46337;-83
2023/03/21 05:10:10;;;;;;;;;4.00;2.75;;;;;;;;6335873;22;45161;-83
2023/03/21 05:12:35;;;;;;;;;1.75;1.00;;;;;;;;6335761;22;45304;-83
2023/03/21 05:15:01;;;;;;;;;2.00;2.00;;;;;;;;6335612;22;45236;-83
2023/03/21 05:17:27;;;;;;;;;2.67;2.00;;;;;;;;6335881;22;45992;-83
2023/03/21 05:19:52;;;;;;;;;2.00;2.00;;;;;;;;6334170;22;45653;-83
2023/03/21 05:22:18;;;;;;;;;4.00;1.75;;;;;;;;6336029;22;45303;-83
2023/03/21 05:24:48;;;;;;;;;2.00;1.50;;;;;;;;6334060;22;45601;-84
2023/03/21 05:27:33;;;;;;;;;3.50;2.25;;;;;;;;6335361;22;46059;-85
2023/03/21 05:30:03;;;;;;;;;4.00;3.00;;;;;;;;6335685;22;45583;-84
2023/03/21 05:32:29;;;;;;;;;5.25;3.50;;;;;;;;6336104;22;45311;-84
2023/03/21 05:34:54;;;;;;;;;4.00;3.00;;;;;;;;6335721;22;45465;-83
2023/03/21 05:37:19;;;;;;;;;3.33;3.00;;;;;;;;6335830;22;46475;-84
2023/03/21 05:39:44;;;;;;;;;4.00;2.33;;;;;;;;6335435;22;45334;-84
2023/03/21 05:42:10;;;;;;;;;2.67;2.33;;;;;;;;6335338;22;45403;-84
2023/03/21 05:44:36;;;;;;;;;3.67;3.00;;;;;;;;6336099;22;45394;-84
2023/03/21 05:47:03;;;;;;;;;3.00;1.50;;;;;;;;6335850;22;46085;-84
2023/03/21 05:49:29;;;;;;;;;5.00;2.00;;;;;;;;6336154;22;46015;-84
2023/03/21 05:51:55;;;;;;;;;6.75;2.25;;;;;;;;6336008;22;45339;-84
2023/03/21 05:54:20;;;;;;;;;5.50;3.00;;;;;;;;6336029;22;45376;-84
2023/03/21 05:56:45;;;;;;;;;3.67;2.00;;;;;;;;6333651;22;47200;-84
2023/03/21 05:59:10;;;;;;;;;6.33;4.00;;;;;;;;6335859;22;45222;-84
2023/03/21 06:01:35;;;;;;;;;4.00;2.67;;;;;;;;6335840;22;45202;-84
2023/03/21 06:04:00;;;;;;;;;4.00;2.67;;;;;;;;6335494;22;45220;-84
2023/03/21 06:06:26;;;;;;;;;3.33;3.33;;;;;;;;6335740;22;45685;-83
2023/03/21 06:08:51;;;;;;;;;2.33;2.33;;;;;;;;6335333;22;45292;-84
2023/03/21 06:11:23;;;;;;;;;4.00;4.00;;;;;;;;6335783;22;45271;-84
2023/03/21 06:13:48;;;;;;;;;3.00;2.75;;;;;;;;6335451;22;45224;-83
2023/03/21 06:16:13;;;;;;;;;3.00;3.00;;;;;;;;6333521;22;48448;-84
2023/03/21 06:18:39;;;;;;;;;3.67;3.67;;;;;;;;6333323;22;45221;-82
2023/03/21 06:21:04;;;;;;;;;4.00;3.00;;;;;;;;6334995;22;45221;-82
2023/03/21 06:23:29;;;;;;;;;6.25;3.00;;;;;;;;6334876;22;45471;-83
2023/03/21 06:25:54;;;;;;;;;5.00;3.00;;;;;;;;6335110;22;45350;-83
2023/03/21 06:28:20;;;;;;;;;2.33;2.33;;;;;;;;6335743;22;45202;-83
2023/03/21 06:30:45;;;;;;;;;2.33;2.33;;;;;;;;6335713;22;45346;-82
2023/03/21 06:33:10;;;;;;;;;3.00;3.00;;;;;;;;6336202;22;45285;-82
2023/03/21 06:35:35;;;;;;;;;3.25;2.00;;;;;;;;6335846;22;46456;-83
2023/03/21 06:38:00;;;;;;;;;3.00;2.67;;;;;;;;6335563;22;45210;-83
2023/03/21 06:40:26;;;;;;;;;3.00;2.00;;;;;;;;6333489;22;45277;-83
2023/03/21 06:42:51;;;;;;;;;5.67;2.00;;;;;;;;6335622;22;45708;-83
2023/03/21 06:45:16;;;;;;;;;4.33;3.00;;;;;;;;6335476;22;47015;-82
2023/03/21 06:47:41;;;;;;;;;7.67;3.00;;;;;;;;6335676;22;45371;-83
2023/03/21 06:50:07;;;;;;;;;6.33;4.00;;;;;;;;6333849;22;45443;-82
2023/03/21 06:52:56;;;;;;;;;3.25;3.25;;;;;;;;6332410;22;45320;-83
2023/03/21 06:55:25;;;;;;;;;7.00;3.00;;;;;;;;6207864;22;45837;-82
2023/03/21 06:57:54;;;;;;;;;2.00;1.00;;;;;;;;6208520;22;45352;-82
2023/03/21 07:00:20;;;;;;;;;3.00;2.25;;;;;;;;6208873;22;45385;-85
2023/03/21 07:02:45;;;;;;;;;3.75;3.25;;;;;;;;6208601;22;45572;-85
2023/03/21 07:05:10;;;;;;;;;7.00;3.50;;;;;;;;6208933;22;46089;-85
2023/03/21 07:07:36;;;;;;;;;4.00;3.75;;;;;;;;6208262;22;45283;-86
2023/03/21 07:10:01;;;;;;;;;4.75;3.00;;;;;;;;6208575;22;45649;-82
2023/03/21 07:12:26;;;;;;;;;4.50;4.00;;;;;;;;6209517;22;45340;-83
2023/03/21 07:14:52;;;;;;;;;9.67;6.00;;;;;;;;6209524;22;45578;-84
2023/03/21 07:17:17;;;;;;;;;3.67;3.67;;;;;;;;6209770;22;45317;-87
2023/03/21 07:19:42;;;;;;;;;9.00;3.67;;;;;;;;6184248;22;45311;-83
2023/03/21 07:22:07;;;;;;;;;5.67;3.00;;;;;;;;6209169;22;45245;-83
2023/03/21 07:24:32;;;;;;;;;6.67;3.00;;;;;;;;6209714;22;45274;-82
2023/03/21 07:26:58;;;;;;;;;6.00;3.67;;;;;;;;6209630;22;45193;-83
2023/03/21 07:29:24;;;;;;;;;2.33;2.33;;;;;;;;6209835;22;45239;-85
2023/03/21 07:31:49;;;;;;;;;3.50;2.00;;;;;;;;6271573;22;45381;-84
2023/03/21 07:34:15;;;;;;;;;3.67;2.67;;;;;;;;6336009;22;47996;-85
2023/03/21 07:36:41;;;;;;;;;5.00;2.50;;;;;;;;6335853;22;45246;-84
2023/03/21 07:39:06;;;;;;;;;6.00;3.25;;;;;;;;6336667;22;45231;-86
2023/03/21 07:41:31;;;;;;;;;7.00;4.00;;;;;;;;6333999;22;45323;-87
2023/03/21 07:43:56;;;;;;;;;4.67;3.00;;;;;;;;6334525;22;47251;-83
2023/03/21 07:46:22;;;;;;;;;5.67;2.67;;;;;;;;6336960;22;45233;-84
2023/03/21 07:48:47;;;;;;;;;10.33;4.00;;;;;;;;6336381;22;45263;-87
2023/03/21 07:51:12;;;;;;;;;4.00;4.00;;;;;;;;6337213;22;45432;-89
2023/03/21 07:53:38;;;;;;;;;7.00;4.67;;;;;;;;6337176;22;45679;-88
2023/03/21 07:56:03;;;;;;;;;7.00;5.00;;;;;;;;6336738;22;45280;-88
2023/03/21 07:58:28;;;;;;;;;7.00;4.50;;;;;;;;6335286;22;45390;-87
2023/03/21 08:00:57;;;;;;;;;3.00;3.00;;;;;;;;6336905;22;45416;-88
2023/03/21 08:03:22;;;;;;;;;7.75;5.50;;;;;;;;6333984;22;48112;-86
2023/03/21 08:05:48;;;;;;;;;7.00;4.50;;;;;;;;6333874;22;45260;-87
2023/03/21 08:08:13;;;;;;;;;5.50;3.00;;;;;;;;6332934;22;45222;-83
2023/03/21 08:10:40;;;;;;;;;4.00;4.00;;;;;;;;6335626;22;45428;-83
2023/03/21 08:13:05;;;;;;;;;5.00;4.50;;;;;;;;6334966;22;46901;-84
2023/03/21 08:15:31;;;;;;;;;7.33;7.00;;;;;;;;6335043;22;45475;-84
2023/03/21 08:17:57;;;;;;;;;3.00;2.75;;;;;;;;6335317;22;45330;-83
2023/03/21 08:20:22;;;;;;;;;4.25;4.25;;;;;;;;6334662;22;45287;-83
2023/03/21 08:22:48;;;;;;;;;7.00;6.00;;;;;;;;6335143;22;46549;-83
2023/03/21 08:25:14;;;;;;;;;7.00;4.50;;;;;;;;6334956;22;45280;-83
2023/03/21 08:27:41;;;;;;;;;7.00;4.00;;;;;;;;6335606;22;45276;-84
2023/03/21 08:30:07;;;;;;;;;7.00;6.50;;;;;;;;6336123;22;45273;-83
2023/03/21 08:32:32;;;;;;;;;6.00;3.50;;;;;;;;6335263;22;47440;-83
2023/03/21 08:35:01;;;;;;;;;7.00;3.75;;;;;;;;6334855;22;45192;-84
2023/03/21 08:37:27;;;;;;;;;5.50;4.00;;;;;;;;6335677;22;45354;-84
2023/03/21 08:39:52;;;;;;;;;9.75;4.25;;;;;;;;6335858;22;45418;-84
2023/03/21 08:42:18;;;;;;;;;4.50;4.00;;;;;;;;6335292;22;46789;-83
2023/03/21 08:44:43;;;;;;;;;8.75;5.00;;;;;;;;6333837;22;45339;-83
2023/03/21 08:47:08;;;;;;;;;7.67;6.00;;;;;;;;6335278;22;45310;-84
2023/03/21 08:49:34;;;;;;;;;7.33;3.67;;;;;;;;6333003;22;45319;-83
2023/03/21 08:51:59;;;;;;;;;3.25;2.00;;;;;;;;6335162;22;46491;-84
2023/03/21 08:54:24;;;;;;;;;3.75;3.00;;;;;;;;6335119;22;45400;-84
2023/03/21 08:56:49;;;;;;;;;7.67;4.00;;;;;;;;6335692;22;45266;-83
2023/03/21 08:59:16;;;;;;;;;10.00;3.25;;;;;;;;6333005;22;45417;-83
2023/03/21 09:01:41;;;;;;;;;3.33;3.33;;;;;;;;6335278;22;45415;-83
2023/03/21 09:04:09;;;;;;;;;3.00;3.00;;;;;;;;6334843;22;45462;-81
2023/03/21 09:06:35;;;;;;;;;6.50;3.00;;;;;;;;6335558;22;45447;-82
2023/03/21 09:09:00;;;;;;;;;4.50;3.00;;;;;;;;6335618;22;45393;-82
2023/03/21 09:11:25;;;;;;;;;2.00;2.00;;;;;;;;6335157;22;45559;-82
2023/03/21 09:13:51;;;;;;;;;5.00;3.00;;;;;;;;6335537;22;45282;-82
2023/03/21 09:16:16;;;;;;;;;5.67;3.00;;;;;;;;6335651;22;45288;-82
2023/03/21 09:18:47;;;;;;;;;2.00;2.00;;;;;;;;6334543;22;45501;-82
2023/03/21 09:21:13;;;;;;;;;5.75;3.00;;;;;;;;6334968;22;46567;-82
2023/03/21 09:23:39;;;;;;;;;3.00;2.25;;;;;;;;6335233;22;45577;-82
2023/03/21 09:26:05;;;;;;;;;6.50;2.75;;;;;;;;6335950;22;45293;-82
2023/03/21 09:28:31;;;;;;;;;2.50;2.00;;;;;;;;6334880;22;45654;-82
2023/03/21 09:30:57;;;;;;;;;3.50;2.00;;;;;;;;6335097;22;46186;-82
2023/03/21 09:33:24;;;;;;;;;3.00;1.50;;;;;;;;6334722;22;45290;-82
2023/03/21 09:35:49;;;;;;;;;3.50;2.00;;;;;;;;6335217;22;45367;-82
2023/03/21 09:38:15;;;;;;;;;3.75;2.00;;;;;;;;6335085;22;45324;-82
2023/03/21 09:41:02;;;;;;;;;2.75;2.50;;;;;;;;6335187;22;45900;-82
2023/03/21 09:43:36;;;;;;;;;8.50;3.00;;;;;;;;6334781;22;45182;-82
2023/03/21 09:46:07;;;;;;;;;4.75;3.00;;;;;;;;6334963;22;45553;-82
2023/03/21 09:48:38;;;;;;;;;4.75;2.00;;;;;;;;6334783;22;45400;-82
2023/03/21 09:51:05;;;;;;;;;5.00;2.75;;;;;;;;6334430;22;46382;-83
2023/03/21 09:53:39;;;;;;;;;3.50;2.00;;;;;;;;6334815;22;45626;-82
2023/03/21 09:56:05;;;;;;;;;7.25;4.00;;;;;;;;6335353;22;45205;-83
2023/03/21 09:58:58;;;;;;;;;3.25;1.25;;;;;;;;6335275;22;45307;-82
2023/03/21 10:01:31;;;;;;;;;3.25;3.25;;;;;;;;6326575;22;48127;-82
2023/03/21 10:03:59;;;;;;;;;3.75;2.50;;;;;;;;6336201;22;45240;-83
2023/03/21 10:06:28;;;;;;;;;4.00;2.00;;;;;;;;6336436;22;45542;-83
2023/03/21 10:09:06;;;;;;;;;3.00;1.75;;;;;;;;6336463;22;45407;-82
2023/03/21 10:11:39;;;;;;;;;6.25;3.00;;;;;;;;6335572;22;45365;-83
2023/03/21 10:14:24;;;;;;;;;3.25;3.00;;;;;;;;6336469;22;45541;-82
2023/03/21 10:17:12;;;;;;;;;3.00;3.00;;;;;;;;6336138;22;45290;-82
2023/03/21 10:19:37;;;;;;;;;3.75;2.50;;;;;;;;6318384;22;45423;-82
2023/03/21 10:22:03;;;;;;;;;3.67;1.67;;;;;;;;6335441;22;46451;-83
2023/03/21 10:24:30;;;;;;;;;2.33;2.33;;;;;;;;6335968;22;45252;-83
2023/03/21 10:26:56;;;;;;;;;6.00;3.25;;;;;;;;6335908;22;45571;-83
2023/03/21 10:29:25;;;;;;;;;8.25;3.00;;;;;;;;6335755;22;45348;-83
2023/03/21 10:31:51;;;;;;;;;0.00;0.00;;;;;;;;6335654;22;47318;-83
2023/03/21 10:34:27;;;;;;;;;4.00;2.00;;;;;;;;6336284;22;45264;-82
2023/03/21 10:36:52;;;;;;;;;3.50;2.00;;;;;;;;6336332;22;45235;-83
2023/03/21 10:39:23;;;;;;;;;2.00;2.00;;;;;;;;6335875;22;45198;-83
2023/03/21 10:41:48;;;;;;;;;4.00;2.00;;;;;;;;6336231;22;46664;-82
2023/03/21 10:44:16;;;;;;;;;1.33;1.33;;;;;;;;6334370;22;45953;-83
2023/03/21 10:46:57;;;;;;;;;2.25;2.25;;;;;;;;6335657;22;45241;-83
2023/03/21 10:49:25;;;;;;;;;2.50;1.50;;;;;;;;6335821;22;45300;-81
2023/03/21 10:51:52;;;;;;;;;3.25;2.00;;;;;;;;6335848;22;46387;-82
2023/03/21 10:54:19;;;;;;;;;3.00;2.00;;;;;;;;6335789;22;45531;-82
2023/03/21 10:56:52;;;;;;;;;3.00;2.00;;;;;;;;6335651;22;45208;-81
2023/03/21 10:59:19;;;;;;;;;4.00;2.00;;;;;;;;6334126;22;45423;-82
2023/03/21 11:01:49;;;;;;;;;3.50;2.75;;;;;;;;6335560;22;46296;-82
2023/03/21 11:04:21;;;;;;;;;3.25;2.00;;;;;;;;6336221;22;45315;-82
2023/03/21 11:07:13;;;;;;;;;2.75;2.75;;;;;;;;6334070;22;45343;-82
2023/03/21 11:09:55;;;;;;;;;3.50;2.50;;;;;;;;6330467;22;45355;-81
2023/03/21 11:12:29;;;;;;;;;2.00;2.00;;;;;;;;6335236;22;46696;-81
2023/03/21 11:14:56;;;;;;;;;3.25;2.00;;;;;;;;6334427;22;45341;-82
2023/03/21 11:17:26;;;;;;;;;3.25;2.00;;;;;;;;6335180;22;45300;-82
2023/03/21 11:19:59;;;;;;;;;2.50;2.00;;;;;;;;6336189;22;45303;-82
2023/03/21 11:22:29;;;;;;;;;3.50;3.00;;;;;;;;6335434;22;45903;-82
2023/03/21 11:25:01;;;;;;;;;3.50;3.00;;;;;;;;6335215;22;45292;-82
2023/03/21 11:27:30;;;;;;;;;4.50;2.00;;;;;;;;6336237;22;45381;-83
2023/03/21 11:29:56;;;;;;;;;5.25;3.50;;;;;;;;6335247;22;45319;-83
2023/03/21 11:32:25;;;;;;;;;6.25;4.00;;;;;;;;6335421;22;47186;-82
2023/03/21 11:34:56;;;;;;;;;4.00;4.00;;;;;;;;6335420;22;45696;-82
2023/03/21 11:37:31;;;;;;;;;3.25;3.25;;;;;;;;6335627;22;45235;-82
2023/03/21 11:40:05;;;;;;;;;3.25;3.25;;;;;;;;6335795;22;45524;-83
2023/03/21 11:42:31;;;;;;;;;5.75;3.75;;;;;;;;6335863;22;46300;-83
2023/03/21 11:45:00;;;;;;;;;3.75;3.75;;;;;;;;6335055;22;45341;-83
2023/03/21 11:47:25;;;;;;;;;5.50;3.50;;;;;;;;6334986;22;45204;-81
2023/03/21 11:49:51;;;;;;;;;6.00;3.00;;;;;;;;6336270;22;45356;-83
2023/03/21 11:52:23;;;;;;;;;4.00;3.50;;;;;;;;6333299;22;46453;-82
2023/03/21 11:54:48;;;;;;;;;3.00;3.00;;;;;;;;6335280;22;45660;-82
2023/03/21 11:57:21;;;;;;;;;4.00;3.00;;;;;;;;6336020;22;45232;-82
2023/03/21 11:59:51;;;;;;;;;3.00;3.00;;;;;;;;6335204;22;45306;-82
2023/03/21 12:02:24;;;;;;;;;3.00;3.00;;;;;;;;6335419;22;45533;-82
2023/03/21 12:05:20;;;;;;;;;2.00;2.00;;;;;;;;6335328;22;45275;-82
2023/03/21 12:07:58;;;;;;;;;4.00;2.50;;;;;;;;6310180;22;45315;-81
2023/03/21 12:10:30;;;;;;;;;5.00;2.00;;;;;;;;6335364;22;45295;-82
2023/03/21 12:13:01;;;;;;;;;1.50;1.50;;;;;;;;6334508;22;47356;-83
2023/03/21 12:15:32;;;;;;;;;2.25;2.00;;;;;;;;6335407;22;45225;-82
2023/03/21 12:18:15;;;;;;;;;3.00;2.00;;;;;;;;6335801;22;45394;-82
2023/03/21 12:20:44;;;;;;;;;3.00;1.50;;;;;;;;6335359;22;45493;-82
2023/03/21 12:23:28;;;;;;;;;3.00;2.75;;;;;;;;6335323;22;45673;-82
2023/03/21 12:25:59;;;;;;;;;2.50;2.00;;;;;;;;6333695;22;45931;-84
2023/03/21 12:28:32;;;;;;;;;3.25;2.50;;;;;;;;6335233;22;45359;-85
2023/03/21 12:31:07;;;;;;;;;2.75;2.75;;;;;;;;6333986;22;45571;-82
2023/03/21 12:33:51;;;;;;;;;2.00;2.00;;;;;;;;6333569;22;47093;-84
2023/03/21 12:36:28;;;;;;;;;6.00;3.50;;;;;;;;6333569;22;45633;-82
2023/03/21 12:39:12;;;;;;;;;5.00;2.75;;;;;;;;6335061;22;45315;-82
2023/03/21 12:41:37;;;;;;;;;3.50;2.50;;;;;;;;6335098;22;45454;-83
2023/03/21 12:44:04;;;;;;;;;3.00;3.00;;;;;;;;6333423;22;46941;-82
2023/03/21 12:46:29;;;;;;;;;5.00;3.00;;;;;;;;6335451;22;45640;-82
2023/03/21 12:49:01;;;;;;;;;2.33;2.33;;;;;;;;6335762;22;45573;-82
2023/03/21 12:51:32;;;;;;;;;3.00;3.00;;;;;;;;6335070;22;45510;-80
2023/03/21 12:54:02;;;;;;;;;6.00;3.75;;;;;;;;6335288;22;47066;-81
2023/03/21 12:56:33;;;;;;;;;3.00;3.00;;;;;;;;6332879;22;45642;-81
2023/03/21 12:59:02;;;;;;;;;4.00;2.50;;;;;;;;6335896;22;45465;-81
2023/03/21 13:01:28;;;;;;;;;1.00;0.00;;;;;;;;6336324;22;45142;-80
2023/03/21 13:03:56;;;;;;;;;3.75;2.00;;;;;;;;6335739;22;45464;-81
2023/03/21 13:06:23;;;;;;;;;2.00;2.00;;;;;;;;6335935;22;45471;-80
2023/03/21 13:09:05;;;;;;;;;5.75;5.00;;;;;;;;6336291;22;45304;-81
2023/03/21 13:11:31;;;;;;;;;4.00;3.75;;;;;;;;6335423;22;45141;-80
2023/03/21 13:14:05;;;;;;;;;4.00;3.00;;;;;;;;6334112;22;46954;-81
2023/03/21 13:16:36;;;;;;;;;3.00;3.00;;;;;;;;6333663;22;45950;-80
2023/03/21 13:19:20;;;;;;;;;3.25;3.00;;;;;;;;6333233;22;45319;-79
2023/03/21 13:21:56;;;;;;;;;4.00;1.00;;;;;;;;6335116;22;45220;-81
2023/03/21 13:24:30;;;;;;;;;6.00;3.00;;;;;;;;6334895;22;45458;-81
2023/03/21 13:26:56;;;;;;;;;4.25;2.25;;;;;;;;6334545;22;45410;-81
2023/03/21 13:29:21;;;;;;;;;2.00;2.00;;;;;;;;6334531;22;45319;-81
2023/03/21 13:31:47;;;;;;;;;4.25;2.25;;;;;;;;6334410;22;45346;-82
2023/03/21 13:34:13;;;;;;;;;2.75;1.25;;;;;;;;6334542;22;46087;-82
2023/03/21 13:36:40;;;;;;;;;3.75;2.00;;;;;;;;6337867;22;45557;-82
2023/03/21 13:39:13;;;;;;;;;6.00;2.25;;;;;;;;6338165;22;45308;-81
2023/03/21 13:41:41;;;;;;;;;3.00;2.00;;;;;;;;6338582;22;45237;-82
2023/03/21 13:44:15;;;;;;;;;1.00;1.00;;;;;;;;6338314;22;46449;-80
2023/03/21 13:46:49;;;;;;;;;1.00;1.00;;;;;;;;6337832;22;45249;-81
2023/03/21 13:49:25;;;;;;;;;2.00;2.00;;;;;;;;6339075;22;45305;-81
2023/03/21 13:51:51;;;;;;;;;3.50;3.00;;;;;;;;6338110;22;45284;-82
2023/03/21 13:54:22;;;;;;;;;3.50;2.25;;;;;;;;6337168;22;45326;-83
2023/03/21 13:56:49;;;;;;;;;2.75;2.75;;;;;;;;6338185;22;45348;-82
2023/03/21 13:59:35;;;;;;;;;3.25;1.75;;;;;;;;6338769;22;45562;-82
2023/03/21 14:02:04;;;;;;;;;2.00;2.00;;;;;;;;6338646;22;45218;-82
2023/03/21 14:04:31;;;;;;;;;1.25;1.00;;;;;;;;6338281;22;46358;-82
2023/03/21 14:06:58;;;;;;;;;3.00;2.00;;;;;;;;6338029;22;45980;-80
2023/03/21 14:09:26;;;;;;;;;1.00;1.00;;;;;;;;6337788;22;45286;-80
2023/03/21 14:11:52;;;;;;;;;2.00;2.00;;;;;;;;6338300;22;45466;-80
2023/03/21 14:14:19;;;;;;;;;1.00;1.00;;;;;;;;6337862;22;45312;-82
2023/03/21 14:16:44;;;;;;;;;2.00;1.00;;;;;;;;6338409;22;45300;-82
2023/03/21 14:19:10;;;;;;;;;1.33;1.00;;;;;;;;6338698;22;45340;-82
2023/03/21 14:21:36;;;;;;;;;0.75;0.75;;;;;;;;6337636;22;45351;-82
2023/03/21 14:24:03;;;;;;;;;1.00;1.00;;;;;;;;6338028;22;46129;-81
2023/03/21 14:26:32;;;;;;;;;2.75;1.00;;;;;;;;6338655;22;45251;-83
2023/03/21 14:29:00;;;;;;;;;0.00;0.00;;;;;;;;6338764;22;45412;-84
2023/03/21 14:31:25;;;;;;;;;2.00;1.25;;;;;;;;6338263;22;45468;-81
2023/03/21 14:33:52;;;;;;;;;1.50;1.00;;;;;;;;6335816;22;47252;-81
2023/03/21 14:36:25;;;;;;;;;0.75;0.75;;;;;;;;6337384;22;45603;-81
2023/03/21 14:38:56;;;;;;;;;0.50;0.25;;;;;;;;6337648;22;45283;-81
2023/03/21 14:41:22;;;;;;;;;1.00;1.00;;;;;;;;6336411;22;45249;-82
2023/03/21 14:44:01;;;;;;;;;1.50;0.50;;;;;;;;6337869;22;45703;-81
2023/03/21 14:46:26;;;;;;;;;0.00;0.00;;;;;;;;6337116;22;45281;-82
2023/03/21 14:48:51;;;;;;;;;2.00;0.00;;;;;;;;6335940;22;45347;-82
2023/03/21 14:51:17;;;;;;;;;0.00;0.00;;;;;;;;6335770;22;45494;-81